createdAt,value
2017-02-09T00:00:18.216Z,16.07
2017-02-09T00:01:28.818Z,16.04
2017-02-09T00:02:38.547Z,16.09
2017-02-09T00:03:48.273Z,16.09
2017-02-09T00:04:58.042Z,16.07
2017-02-09T00:06:07.758Z,16.01
2017-02-09T00:07:17.479Z,16.05
2017-02-09T00:08:27.641Z,16.07
2017-02-09T00:09:37.366Z,16.09
2017-02-09T00:10:47.587Z,16.05
2017-02-09T00:11:57.305Z,16.07
2017-02-09T00:13:07.466Z,16.02
2017-02-09T00:14:17.639Z,16.02
2017-02-09T00:15:27.813Z,15.94
2017-02-09T00:16:37.581Z,15.93
2017-02-09T00:17:47.747Z,15.97
2017-02-09T00:18:58.347Z,15.92
2017-02-09T00:20:08.507Z,15.93
2017-02-09T00:21:17.786Z,16.05
2017-02-09T00:22:27.227Z,15.97
2017-02-09T00:23:37.397Z,15.94
2017-02-09T00:24:48.002Z,15.96
2017-02-09T00:25:57.727Z,15.92
2017-02-09T00:27:07.455Z,16
2017-02-09T00:28:17.229Z,15.96
2017-02-09T00:29:27.407Z,16
2017-02-09T00:30:36.688Z,15.94
2017-02-09T00:31:46.417Z,15.96
2017-02-09T00:32:56.582Z,15.93
2017-02-09T00:34:06.359Z,15.92
2017-02-09T00:35:15.640Z,15.96
2017-02-09T00:36:26.251Z,15.92
2017-02-09T00:37:36.435Z,15.93
2017-02-09T00:38:46.602Z,15.96
2017-02-09T00:39:56.821Z,15.92
2017-02-09T00:41:06.550Z,15.82
2017-02-09T00:42:15.833Z,15.92
2017-02-09T00:43:25.987Z,15.9
2017-02-09T00:44:36.154Z,15.9
2017-02-09T00:45:45.935Z,15.9
2017-02-09T00:46:55.228Z,15.89
2017-02-09T00:48:04.956Z,15.89
2017-02-09T00:49:15.110Z,15.82
2017-02-09T00:50:24.844Z,15.87
2017-02-09T00:51:34.615Z,15.8
2017-02-09T00:52:45.210Z,15.87
2017-02-09T00:53:54.939Z,15.87
2017-02-09T00:55:04.669Z,15.84
2017-02-09T00:56:14.397Z,15.86
2017-02-09T00:57:24.166Z,15.76
2017-02-09T00:58:34.336Z,15.82
2017-02-09T00:59:44.507Z,15.82
2017-02-09T01:00:53.788Z,15.71
2017-02-09T01:02:04.392Z,15.75
2017-02-09T01:03:13.928Z,15.83
2017-02-09T01:04:23.658Z,15.74
2017-02-09T01:05:32.951Z,15.75
2017-02-09T01:06:42.236Z,15.75
2017-02-09T01:07:51.971Z,15.8
2017-02-09T01:09:02.769Z,15.74
2017-02-09T01:10:12.939Z,15.76
2017-02-09T01:11:22.673Z,15.74
2017-02-09T01:12:33.294Z,15.75
2017-02-09T01:13:43.223Z,15.74
2017-02-09T01:14:53.440Z,15.71
2017-02-09T01:16:03.164Z,15.71
2017-02-09T01:17:13.318Z,15.72
2017-02-09T01:18:23.490Z,15.69
2017-02-09T01:19:32.775Z,15.69
2017-02-09T01:20:42.538Z,15.68
2017-02-09T01:21:52.255Z,15.62
2017-02-09T01:23:01.984Z,15.68
2017-02-09T01:24:11.718Z,15.65
2017-02-09T01:25:20.999Z,15.65
2017-02-09T01:26:31.660Z,15.67
2017-02-09T01:27:41.839Z,15.71
2017-02-09T01:28:51.997Z,15.62
2017-02-09T01:30:02.611Z,15.67
2017-02-09T01:31:12.771Z,15.65
2017-02-09T01:32:22.980Z,15.6
2017-02-09T01:33:33.131Z,15.67
2017-02-09T01:34:43.295Z,15.68
2017-02-09T01:35:53.021Z,15.57
2017-02-09T01:37:02.751Z,15.64
2017-02-09T01:38:12.966Z,15.65
2017-02-09T01:39:24.008Z,15.57
2017-02-09T01:40:33.731Z,15.57
2017-02-09T01:41:43.455Z,15.6
2017-02-09T01:42:53.175Z,15.47
2017-02-09T01:44:02.958Z,15.62
2017-02-09T01:45:12.681Z,15.5
2017-02-09T01:46:22.848Z,15.54
2017-02-09T01:47:32.571Z,15.59
2017-02-09T01:48:42.302Z,15.59
2017-02-09T01:49:52.071Z,15.62
2017-02-09T01:51:01.356Z,15.6
2017-02-09T01:52:11.076Z,15.57
2017-02-09T01:53:21.234Z,15.57
2017-02-09T01:54:30.962Z,15.54
2017-02-09T01:55:41.717Z,15.56
2017-02-09T01:56:52.322Z,15.56
2017-02-09T01:58:02.923Z,15.5
2017-02-09T01:59:13.120Z,15.46
2017-02-09T02:00:22.842Z,15.53
2017-02-09T02:01:32.610Z,15.46
2017-02-09T02:02:42.340Z,15.56
2017-02-09T02:03:52.061Z,15.49
2017-02-09T02:05:02.218Z,15.43
2017-02-09T02:06:11.499Z,15.43
2017-02-09T02:07:21.281Z,15.39
2017-02-09T02:08:30.997Z,15.41
2017-02-09T02:09:41.167Z,15.43
2017-02-09T02:10:50.450Z,15.43
2017-02-09T02:12:00.606Z,15.36
2017-02-09T02:13:10.038Z,15.44
2017-02-09T02:14:19.320Z,15.41
2017-02-09T02:15:29.927Z,15.38
2017-02-09T02:16:40.086Z,15.46
2017-02-09T02:17:49.372Z,15.43
2017-02-09T02:18:59.784Z,15.43
2017-02-09T02:20:09.078Z,15.32
2017-02-09T02:21:18.357Z,15.39
2017-02-09T02:22:29.398Z,15.43
2017-02-09T02:23:39.116Z,15.41
2017-02-09T02:24:48.454Z,15.41
2017-02-09T02:25:58.619Z,15.34
2017-02-09T02:27:07.911Z,15.35
2017-02-09T02:28:18.074Z,15.35
2017-02-09T02:29:27.358Z,15.36
2017-02-09T02:30:37.570Z,15.29
2017-02-09T02:31:48.168Z,15.28
2017-02-09T02:32:58.330Z,15.32
2017-02-09T02:34:08.514Z,15.31
2017-02-09T02:35:17.800Z,15.32
2017-02-09T02:36:27.610Z,15.32
2017-02-09T02:37:36.894Z,15.32
2017-02-09T02:38:46.180Z,15.29
2017-02-09T02:39:55.902Z,15.31
2017-02-09T02:41:05.634Z,15.29
2017-02-09T02:42:14.967Z,15.28
2017-02-09T02:43:24.689Z,15.31
2017-02-09T02:44:34.422Z,15.25
2017-02-09T02:45:44.148Z,15.31
2017-02-09T02:46:54.315Z,15.29
2017-02-09T02:48:04.093Z,15.27
2017-02-09T02:49:13.821Z,15.25
2017-02-09T02:50:23.985Z,15.23
2017-02-09T02:51:33.303Z,15.25
2017-02-09T02:52:43.906Z,15.25
2017-02-09T02:53:53.678Z,15.21
2017-02-09T02:55:03.400Z,15.2
2017-02-09T02:56:12.681Z,15.2
2017-02-09T02:57:21.973Z,15.14
2017-02-09T02:58:32.134Z,15.27
2017-02-09T02:59:42.347Z,15.14
2017-02-09T03:00:51.667Z,15.21
2017-02-09T03:02:02.272Z,15.17
2017-02-09T03:03:12.445Z,15.21
2017-02-09T03:04:21.726Z,15.17
2017-02-09T03:05:31.503Z,15.14
2017-02-09T03:06:41.223Z,15.17
2017-02-09T03:07:51.385Z,15.19
2017-02-09T03:09:01.551Z,15.16
2017-02-09T03:10:11.706Z,15.17
2017-02-09T03:11:21.492Z,15.13
2017-02-09T03:12:31.216Z,15.21
2017-02-09T03:13:41.365Z,15.14
2017-02-09T03:14:50.649Z,15.19
2017-02-09T03:16:00.374Z,15.14
2017-02-09T03:17:11.033Z,15.17
2017-02-09T03:18:21.622Z,15.16
2017-02-09T03:19:31.790Z,15.21
2017-02-09T03:20:41.533Z,15.16
2017-02-09T03:21:51.260Z,15.17
2017-02-09T03:23:01.633Z,15.2
2017-02-09T03:24:10.917Z,15.16
2017-02-09T03:25:20.203Z,15.2
2017-02-09T03:26:29.929Z,15.14
2017-02-09T03:27:39.646Z,15.2
2017-02-09T03:28:48.982Z,15.16
2017-02-09T03:29:58.266Z,15.14
2017-02-09T03:31:08.857Z,15.07
2017-02-09T03:32:18.143Z,15.13
2017-02-09T03:33:27.867Z,15.17
2017-02-09T03:34:37.200Z,15.09
2017-02-09T03:35:46.912Z,15.09
2017-02-09T03:36:57.071Z,15.09
2017-02-09T03:38:06.800Z,15.07
2017-02-09T03:39:16.093Z,15.1
2017-02-09T03:40:26.058Z,15.07
2017-02-09T03:41:36.220Z,15.09
2017-02-09T03:42:46.374Z,15.1
2017-02-09T03:43:55.660Z,15.03
2017-02-09T03:45:05.826Z,15.09
2017-02-09T03:46:15.156Z,14.98
2017-02-09T03:47:24.437Z,15.03
2017-02-09T03:48:34.166Z,15.1
2017-02-09T03:49:44.320Z,15.01
2017-02-09T03:50:54.032Z,15.03
2017-02-09T03:52:04.244Z,14.99
2017-02-09T03:53:15.727Z,14.98
2017-02-09T03:54:25.008Z,14.98
2017-02-09T03:55:35.173Z,15.02
2017-02-09T03:56:44.898Z,15.01
2017-02-09T03:57:54.664Z,14.98
2017-02-09T03:59:04.829Z,15.09
2017-02-09T04:00:14.558Z,14.98
2017-02-09T04:01:25.175Z,14.91
2017-02-09T04:02:34.899Z,14.96
2017-02-09T04:03:45.110Z,14.91
2017-02-09T04:04:55.274Z,14.92
2017-02-09T04:06:04.992Z,14.94
2017-02-09T04:07:15.146Z,15.01
2017-02-09T04:08:25.311Z,14.92
2017-02-09T04:09:34.643Z,14.96
2017-02-09T04:10:44.809Z,14.98
2017-02-09T04:11:55.402Z,14.96
2017-02-09T04:13:05.562Z,14.94
2017-02-09T04:14:15.292Z,14.96
2017-02-09T04:15:25.068Z,14.95
2017-02-09T04:16:35.217Z,14.92
2017-02-09T04:17:45.366Z,14.96
2017-02-09T04:18:55.529Z,14.95
2017-02-09T04:20:05.253Z,14.91
2017-02-09T04:21:15.470Z,14.89
2017-02-09T04:22:26.073Z,14.94
2017-02-09T04:23:35.797Z,14.92
2017-02-09T04:24:45.523Z,14.91
2017-02-09T04:25:55.693Z,14.94
2017-02-09T04:27:05.471Z,14.95
2017-02-09T04:28:15.633Z,14.92
2017-02-09T04:29:25.799Z,14.95
2017-02-09T04:30:35.965Z,14.91
2017-02-09T04:31:45.692Z,14.89
2017-02-09T04:32:55.459Z,14.89
2017-02-09T04:34:05.624Z,14.84
2017-02-09T04:35:15.801Z,14.89
2017-02-09T04:36:25.975Z,14.88
2017-02-09T04:37:35.696Z,14.86
2017-02-09T04:38:45.473Z,14.86
2017-02-09T04:39:55.200Z,14.94
2017-02-09T04:41:04.936Z,14.77
2017-02-09T04:42:14.216Z,14.8
2017-02-09T04:43:23.950Z,14.73
2017-02-09T04:44:33.719Z,14.75
2017-02-09T04:45:44.326Z,14.8
2017-02-09T04:46:54.481Z,14.81
2017-02-09T04:48:04.199Z,14.81
2017-02-09T04:49:14.360Z,14.8
2017-02-09T04:50:24.128Z,14.83
2017-02-09T04:51:33.854Z,14.8
2017-02-09T04:52:44.459Z,14.77
2017-02-09T04:53:54.185Z,14.75
2017-02-09T04:55:03.895Z,14.77
2017-02-09T04:56:14.539Z,14.75
2017-02-09T04:57:25.151Z,14.8
2017-02-09T04:58:35.319Z,14.81
2017-02-09T04:59:45.482Z,14.7
2017-02-09T05:00:55.212Z,14.77
2017-02-09T05:02:05.867Z,14.77
2017-02-09T05:03:16.030Z,14.77
2017-02-09T05:04:25.754Z,14.78
2017-02-09T05:05:36.351Z,14.73
2017-02-09T05:06:46.077Z,14.78
2017-02-09T05:07:56.301Z,14.72
2017-02-09T05:09:06.028Z,14.8
2017-02-09T05:10:16.644Z,14.81
2017-02-09T05:11:26.373Z,14.77
2017-02-09T05:12:36.531Z,14.78
2017-02-09T05:13:47.189Z,14.75
2017-02-09T05:14:56.909Z,14.77
2017-02-09T05:16:06.635Z,14.83
2017-02-09T05:17:16.830Z,14.77
2017-02-09T05:18:26.550Z,14.75
2017-02-09T05:19:36.862Z,14.83
2017-02-09T05:20:46.152Z,14.7
2017-02-09T05:21:55.881Z,14.81
2017-02-09T05:23:05.606Z,14.75
2017-02-09T05:24:15.339Z,14.8
2017-02-09T05:25:24.676Z,14.8
2017-02-09T05:26:34.388Z,14.81
2017-02-09T05:27:44.555Z,14.81
2017-02-09T05:28:55.371Z,14.8
2017-02-09T05:30:07.796Z,14.75
2017-02-09T05:31:18.729Z,14.83
2017-02-09T05:32:29.825Z,14.75
2017-02-09T05:33:40.431Z,14.81
2017-02-09T05:34:50.153Z,14.8
2017-02-09T05:35:59.885Z,14.84
2017-02-09T05:37:09.652Z,14.92
2017-02-09T05:38:19.385Z,14.92
2017-02-09T05:39:29.116Z,15.01
2017-02-09T05:40:39.286Z,14.99
2017-02-09T05:41:49.463Z,14.92
2017-02-09T05:42:59.238Z,14.99
2017-02-09T05:44:08.525Z,15.01
2017-02-09T05:45:19.130Z,14.99
2017-02-09T05:46:29.304Z,15.11
2017-02-09T05:47:39.469Z,15.06
2017-02-09T05:48:49.680Z,15.1
2017-02-09T05:49:59.409Z,15.02
2017-02-09T05:51:09.576Z,15.11
2017-02-09T05:52:20.605Z,15.03
2017-02-09T05:53:31.204Z,15.07
2017-02-09T05:54:40.545Z,15.07
2017-02-09T05:55:50.277Z,15.02
2017-02-09T05:57:00.431Z,15.09
2017-02-09T05:58:10.589Z,15.16
2017-02-09T05:59:20.322Z,15.16
2017-02-09T06:00:30.090Z,15.11
2017-02-09T06:01:40.243Z,15.23
2017-02-09T06:02:50.436Z,15.09
2017-02-09T06:04:00.591Z,15.17
2017-02-09T06:05:10.312Z,15.1
2017-02-09T06:06:20.085Z,15.16
2017-02-09T06:07:29.817Z,15.09
2017-02-09T06:08:39.539Z,15.2
2017-02-09T06:09:49.264Z,15.23
2017-02-09T06:10:58.991Z,15.2
2017-02-09T06:12:08.922Z,15.13
2017-02-09T06:13:19.531Z,15.2
2017-02-09T06:14:29.252Z,15.14
2017-02-09T06:15:38.982Z,15.17
2017-02-09T06:16:48.706Z,15.23
2017-02-09T06:17:59.361Z,15.14
2017-02-09T06:19:09.083Z,15.14
2017-02-09T06:20:18.795Z,15.16
2017-02-09T06:21:28.956Z,15.14
2017-02-09T06:22:38.687Z,15.16
2017-02-09T06:23:50.211Z,15.23
2017-02-09T06:24:59.492Z,15.13
2017-02-09T06:26:09.209Z,15.19
2017-02-09T06:27:18.964Z,15.11
2017-02-09T06:28:28.693Z,15.21
2017-02-09T06:29:39.787Z,15.17
2017-02-09T06:30:50.402Z,15.13
2017-02-09T06:32:00.575Z,15.13
2017-02-09T06:33:09.856Z,15.19
2017-02-09T06:34:19.136Z,15.19
2017-02-09T06:35:30.227Z,15.13
2017-02-09T06:36:39.956Z,15.07
2017-02-09T06:37:49.688Z,15.09
2017-02-09T06:38:59.850Z,15.1
2017-02-09T06:40:10.015Z,15.09
2017-02-09T06:41:19.788Z,15.13
2017-02-09T06:42:29.068Z,15.07
2017-02-09T06:43:39.226Z,15.11
2017-02-09T06:44:48.960Z,15.02
2017-02-09T06:45:58.688Z,15.03
2017-02-09T06:47:08.022Z,15.11
2017-02-09T06:48:18.622Z,15.1
2017-02-09T06:49:28.353Z,15.1
2017-02-09T06:50:37.634Z,15.09
2017-02-09T06:51:46.921Z,15.02
2017-02-09T06:52:57.138Z,15.11
2017-02-09T06:54:07.296Z,15.07
2017-02-09T06:55:16.583Z,15.07
2017-02-09T06:56:25.904Z,15.07
2017-02-09T06:57:35.639Z,14.98
2017-02-09T06:58:45.409Z,15.09
2017-02-09T06:59:54.698Z,15.02
2017-02-09T07:01:03.987Z,15.07
2017-02-09T07:02:13.708Z,14.98
2017-02-09T07:03:23.432Z,15.01
2017-02-09T07:04:33.200Z,15.03
2017-02-09T07:05:43.365Z,14.98
2017-02-09T07:06:53.079Z,15.07
2017-02-09T07:08:02.801Z,15.01
2017-02-09T07:09:12.082Z,14.92
2017-02-09T07:10:21.952Z,14.95
2017-02-09T07:11:31.232Z,15.02
2017-02-09T07:12:41.398Z,15.03
2017-02-09T07:13:51.114Z,14.92
2017-02-09T07:15:00.844Z,15.06
2017-02-09T07:16:10.616Z,14.99
2017-02-09T07:17:19.895Z,15.01
2017-02-09T07:18:29.181Z,14.95
2017-02-09T07:19:38.458Z,14.92
2017-02-09T07:20:48.609Z,14.91
2017-02-09T07:21:57.950Z,15.01
2017-02-09T07:23:07.240Z,15.01
2017-02-09T07:24:16.529Z,14.92
2017-02-09T07:25:26.258Z,14.96
2017-02-09T07:26:35.534Z,14.96
2017-02-09T07:27:44.870Z,14.92
2017-02-09T07:28:55.474Z,14.96
2017-02-09T07:30:05.218Z,14.95
2017-02-09T07:31:15.380Z,14.94
2017-02-09T07:32:25.544Z,14.92
2017-02-09T07:33:35.322Z,14.95
2017-02-09T07:34:44.601Z,14.95
2017-02-09T07:35:54.759Z,14.98
2017-02-09T07:37:04.489Z,14.91
2017-02-09T07:38:13.780Z,14.91
2017-02-09T07:39:23.548Z,14.92
2017-02-09T07:40:32.833Z,14.95
2017-02-09T07:41:42.557Z,14.94
2017-02-09T07:42:53.599Z,14.83
2017-02-09T07:44:02.880Z,14.96
2017-02-09T07:45:13.082Z,14.94
2017-02-09T07:46:22.365Z,14.95
2017-02-09T07:47:31.645Z,14.96
2017-02-09T07:48:40.924Z,14.95
2017-02-09T07:49:50.198Z,14.94
2017-02-09T07:50:59.966Z,14.99
2017-02-09T07:52:10.560Z,14.91
2017-02-09T07:53:20.274Z,14.95
2017-02-09T07:54:29.997Z,14.95
2017-02-09T07:55:39.712Z,14.94
2017-02-09T07:56:49.489Z,14.89
2017-02-09T07:57:58.770Z,14.95
2017-02-09T07:59:09.372Z,14.88
2017-02-09T08:00:19.537Z,14.88
2017-02-09T08:01:29.262Z,14.84
2017-02-09T08:02:39.526Z,14.88
2017-02-09T08:03:49.252Z,14.91
2017-02-09T08:04:59.416Z,14.89
2017-02-09T08:06:09.583Z,14.88
2017-02-09T08:07:19.740Z,14.92
2017-02-09T08:08:29.170Z,14.88
2017-02-09T08:09:38.465Z,14.89
2017-02-09T08:10:48.632Z,14.83
2017-02-09T08:11:57.916Z,14.8
2017-02-09T08:13:07.641Z,14.92
2017-02-09T08:14:17.860Z,14.89
2017-02-09T08:15:28.467Z,14.88
2017-02-09T08:16:38.621Z,14.88
2017-02-09T08:17:47.908Z,14.88
2017-02-09T08:18:57.632Z,14.88
2017-02-09T08:20:06.965Z,14.91
2017-02-09T08:21:16.699Z,14.88
2017-02-09T08:22:26.866Z,14.89
2017-02-09T08:23:37.022Z,14.84
2017-02-09T08:24:46.306Z,14.92
2017-02-09T08:25:56.956Z,14.86
2017-02-09T08:27:06.725Z,14.89
2017-02-09T08:28:16.889Z,14.95
2017-02-09T08:29:26.600Z,14.86
2017-02-09T08:30:35.883Z,14.86
2017-02-09T08:31:46.535Z,14.89
2017-02-09T08:32:55.828Z,14.91
2017-02-09T08:34:05.120Z,14.91
2017-02-09T08:35:14.842Z,14.92
2017-02-09T08:36:24.560Z,14.86
2017-02-09T08:37:34.336Z,14.94
2017-02-09T08:38:44.068Z,14.92
2017-02-09T08:39:54.221Z,14.94
2017-02-09T08:41:03.941Z,14.99
2017-02-09T08:42:14.106Z,14.94
2017-02-09T08:43:23.887Z,14.91
2017-02-09T08:44:34.056Z,14.95
2017-02-09T08:45:44.217Z,14.95
2017-02-09T08:46:54.385Z,14.94
2017-02-09T08:48:04.104Z,15.01
2017-02-09T08:49:14.740Z,14.95
2017-02-09T08:50:24.019Z,15.01
2017-02-09T08:51:33.311Z,15.02
2017-02-09T08:52:43.475Z,14.99
2017-02-09T08:53:53.634Z,14.95
2017-02-09T08:55:03.848Z,14.94
2017-02-09T08:56:13.575Z,14.96
2017-02-09T08:57:22.865Z,14.95
2017-02-09T08:58:32.168Z,14.98
2017-02-09T08:59:42.331Z,15.11
2017-02-09T09:00:52.102Z,15.03
2017-02-09T09:02:01.835Z,15.1
2017-02-09T09:03:11.560Z,15.03
2017-02-09T09:04:20.848Z,15.02
2017-02-09T09:05:31.496Z,15.07
2017-02-09T09:06:41.716Z,15.1
2017-02-09T09:07:51.449Z,15.07
2017-02-09T09:09:01.178Z,15.02
2017-02-09T09:10:11.776Z,15.1
2017-02-09T09:11:21.946Z,15.09
2017-02-09T09:12:32.155Z,15.11
2017-02-09T09:13:41.436Z,15.07
2017-02-09T09:14:50.717Z,15.03
2017-02-09T09:16:00.005Z,15.1
2017-02-09T09:17:10.173Z,15.11
2017-02-09T09:18:20.380Z,15.14
2017-02-09T09:19:30.109Z,15.16
2017-02-09T09:20:40.284Z,15.11
2017-02-09T09:21:50.015Z,15.19
2017-02-09T09:22:59.737Z,15.17
2017-02-09T09:24:09.953Z,15.17
2017-02-09T09:25:20.122Z,15.16
2017-02-09T09:26:29.841Z,15.16
2017-02-09T09:27:40.442Z,15.11
2017-02-09T09:28:50.170Z,15.17
2017-02-09T09:30:00.824Z,15.1
2017-02-09T09:31:10.989Z,15.11
2017-02-09T09:32:20.266Z,15.25
2017-02-09T09:33:30.002Z,15.11
2017-02-09T09:34:40.608Z,15.23
2017-02-09T09:35:50.828Z,15.09
2017-02-09T09:37:01.006Z,15.13
2017-02-09T09:38:11.171Z,15.11
2017-02-09T09:39:21.322Z,15.2
2017-02-09T09:40:31.483Z,15.16
2017-02-09T09:41:41.260Z,15.13
2017-02-09T09:42:50.546Z,15.17
2017-02-09T09:44:00.267Z,15.07
2017-02-09T09:45:10.870Z,15.16
2017-02-09T09:46:21.032Z,15.19
2017-02-09T09:47:31.693Z,15.13
2017-02-09T09:48:42.295Z,15.17
2017-02-09T09:49:52.025Z,15.13
2017-02-09T09:51:01.745Z,15.19
2017-02-09T09:52:12.342Z,15.14
2017-02-09T09:53:22.560Z,15.13
2017-02-09T09:54:31.845Z,15.14
2017-02-09T09:55:41.130Z,15.19
2017-02-09T09:56:51.299Z,15.16
2017-02-09T09:58:01.021Z,15.16
2017-02-09T09:59:10.800Z,15.16
2017-02-09T10:00:20.966Z,15.17
2017-02-09T10:01:30.681Z,15.17
2017-02-09T10:02:41.289Z,15.2
2017-02-09T10:03:50.577Z,15.11
2017-02-09T10:05:00.785Z,15.13
2017-02-09T10:06:10.518Z,15.17
2017-02-09T10:07:20.248Z,15.23
2017-02-09T10:08:30.402Z,15.28
2017-02-09T10:09:41.007Z,15.29
2017-02-09T10:10:50.773Z,15.32
2017-02-09T10:12:00.059Z,15.29
2017-02-09T10:13:09.785Z,15.31
2017-02-09T10:14:19.073Z,15.31
2017-02-09T10:15:28.793Z,15.31
2017-02-09T10:16:38.562Z,15.28
2017-02-09T10:17:48.289Z,15.27
2017-02-09T10:18:58.023Z,15.28
2017-02-09T10:20:07.743Z,15.27
2017-02-09T10:21:17.023Z,15.23
2017-02-09T10:22:27.665Z,15.21
2017-02-09T10:23:36.952Z,15.28
2017-02-09T10:24:47.112Z,15.21
2017-02-09T10:25:56.846Z,15.27
2017-02-09T10:27:07.442Z,15.28
2017-02-09T10:28:17.659Z,15.27
2017-02-09T10:29:27.379Z,15.2
2017-02-09T10:30:37.973Z,15.17
2017-02-09T10:31:48.143Z,15.13
2017-02-09T10:32:57.876Z,15.21
2017-02-09T10:34:07.652Z,15.2
2017-02-09T10:35:17.819Z,15.25
2017-02-09T10:36:27.098Z,15.17
2017-02-09T10:37:37.259Z,15.19
2017-02-09T10:38:47.424Z,15.23
2017-02-09T10:39:57.629Z,15.16
2017-02-09T10:41:07.798Z,15.16
2017-02-09T10:42:17.094Z,15.19
2017-02-09T10:43:26.838Z,15.19
2017-02-09T10:44:37.479Z,15.14
2017-02-09T10:45:48.137Z,15.16
2017-02-09T10:46:57.862Z,15.2
2017-02-09T10:48:08.023Z,15.19
2017-02-09T10:49:17.744Z,15.14
2017-02-09T10:50:27.920Z,15.17
2017-02-09T10:51:38.126Z,15.2
2017-02-09T10:52:47.844Z,15.16
2017-02-09T10:53:57.565Z,15.2
2017-02-09T10:55:06.853Z,15.27
2017-02-09T10:56:17.022Z,15.29
2017-02-09T10:57:26.792Z,15.27
2017-02-09T10:58:36.508Z,15.25
2017-02-09T10:59:46.665Z,15.25
2017-02-09T11:00:56.831Z,15.27
2017-02-09T11:02:06.562Z,15.25
2017-02-09T11:03:15.993Z,15.21
2017-02-09T11:04:25.714Z,15.31
2017-02-09T11:05:35.441Z,15.31
2017-02-09T11:06:45.598Z,15.31
2017-02-09T11:07:54.883Z,15.31
2017-02-09T11:09:04.223Z,15.27
2017-02-09T11:10:13.945Z,15.28
2017-02-09T11:11:24.979Z,15.32
2017-02-09T11:12:34.696Z,15.27
2017-02-09T11:13:44.434Z,15.38
2017-02-09T11:14:53.776Z,15.35
2017-02-09T11:16:03.498Z,15.34
2017-02-09T11:17:14.087Z,15.28
2017-02-09T11:18:24.238Z,15.35
2017-02-09T11:19:33.513Z,15.38
2017-02-09T11:20:43.280Z,15.44
2017-02-09T11:21:53.017Z,15.39
2017-02-09T11:23:03.179Z,15.56
2017-02-09T11:24:12.905Z,15.59
2017-02-09T11:25:22.191Z,15.54
2017-02-09T11:26:31.958Z,15.57
2017-02-09T11:27:41.238Z,15.67
2017-02-09T11:28:51.439Z,15.75
2017-02-09T11:30:01.173Z,15.76
2017-02-09T11:31:11.346Z,15.83
2017-02-09T11:32:21.282Z,15.9
2017-02-09T11:33:32.323Z,15.94
2017-02-09T11:34:41.612Z,16
2017-02-09T11:35:51.775Z,16.09
2017-02-09T11:37:01.488Z,16.14
2017-02-09T11:38:11.262Z,16.21
2017-02-09T11:39:21.426Z,16.31
2017-02-09T11:40:31.164Z,16.33
2017-02-09T11:41:41.331Z,16.3
2017-02-09T11:42:51.058Z,16.35
2017-02-09T11:44:01.267Z,16.42
2017-02-09T11:45:10.562Z,16.48
2017-02-09T11:46:20.722Z,16.53
2017-02-09T11:47:30.445Z,16.6
2017-02-09T11:48:41.046Z,16.63
2017-02-09T11:49:51.256Z,16.82
2017-02-09T11:51:00.974Z,16.81
2017-02-09T11:52:10.700Z,16.96
2017-02-09T11:53:20.444Z,17.11
2017-02-09T11:54:29.765Z,17.14
2017-02-09T11:55:39.692Z,17.14
2017-02-09T11:56:50.294Z,17.14
2017-02-09T11:58:00.022Z,17.25
2017-02-09T11:59:09.741Z,17.3
2017-02-09T12:00:19.476Z,17.34
2017-02-09T12:01:29.251Z,17.44
2017-02-09T12:02:39.425Z,17.48
2017-02-09T12:03:49.155Z,17.54
2017-02-09T12:04:58.436Z,17.55
2017-02-09T12:06:08.168Z,17.59
2017-02-09T12:07:17.946Z,17.64
2017-02-09T12:08:27.675Z,17.62
2017-02-09T12:09:36.961Z,17.72
2017-02-09T12:10:47.128Z,17.71
2017-02-09T12:11:56.843Z,17.66
2017-02-09T12:13:06.618Z,17.71
2017-02-09T12:14:17.213Z,17.82
2017-02-09T12:15:27.382Z,17.78
2017-02-09T12:16:37.103Z,17.87
2017-02-09T12:17:46.836Z,17.93
2017-02-09T12:18:57.038Z,17.78
2017-02-09T12:20:06.766Z,17.9
2017-02-09T12:21:16.924Z,17.9
2017-02-09T12:22:26.650Z,17.9
2017-02-09T12:23:36.827Z,17.82
2017-02-09T12:24:46.603Z,17.93
2017-02-09T12:25:55.888Z,17.96
2017-02-09T12:27:05.165Z,18.03
2017-02-09T12:28:14.453Z,18.07
2017-02-09T12:29:23.737Z,18.08
2017-02-09T12:30:33.521Z,18.15
2017-02-09T12:31:43.247Z,18.2
2017-02-09T12:32:53.849Z,18.15
2017-02-09T12:34:04.027Z,18.23
2017-02-09T12:35:15.079Z,18.18
2017-02-09T12:36:25.297Z,18.21
2017-02-09T12:37:35.020Z,18.2
2017-02-09T12:38:44.742Z,18.21
2017-02-09T12:39:54.461Z,18.23
2017-02-09T12:41:04.608Z,18.21
2017-02-09T12:42:15.265Z,18.29
2017-02-09T12:43:24.986Z,18.32
2017-02-09T12:44:35.146Z,18.36
2017-02-09T12:45:45.310Z,18.37
2017-02-09T12:46:55.474Z,18.39
2017-02-09T12:48:05.695Z,18.33
2017-02-09T12:49:14.975Z,18.39
2017-02-09T12:50:24.717Z,18.42
2017-02-09T12:51:34.445Z,18.41
2017-02-09T12:52:43.733Z,18.44
2017-02-09T12:53:53.517Z,18.47
2017-02-09T12:55:03.247Z,18.48
2017-02-09T12:56:12.526Z,18.5
2017-02-09T12:57:23.133Z,18.51
2017-02-09T12:58:32.862Z,18.51
2017-02-09T12:59:42.643Z,18.52
2017-02-09T13:00:52.372Z,18.52
2017-02-09T13:02:01.656Z,18.52
2017-02-09T13:03:11.394Z,18.52
2017-02-09T13:04:20.679Z,18.55
2017-02-09T13:05:30.900Z,18.54
2017-02-09T13:06:40.186Z,18.5
2017-02-09T13:07:49.471Z,18.52
2017-02-09T13:08:59.195Z,18.52
2017-02-09T13:10:09.365Z,18.54
2017-02-09T13:11:20.029Z,18.55
2017-02-09T13:12:30.186Z,18.55
2017-02-09T13:13:40.798Z,18.55
2017-02-09T13:14:50.086Z,18.55
2017-02-09T13:15:59.374Z,18.5
2017-02-09T13:17:09.625Z,18.52
2017-02-09T13:18:19.354Z,18.54
2017-02-09T13:19:29.961Z,18.52
2017-02-09T13:20:40.122Z,18.48
2017-02-09T13:21:50.277Z,18.48
2017-02-09T13:23:00.058Z,18.47
2017-02-09T13:24:10.222Z,18.52
2017-02-09T13:25:20.387Z,18.51
2017-02-09T13:26:30.109Z,18.52
2017-02-09T13:27:39.833Z,18.48
2017-02-09T13:28:50.475Z,18.55
2017-02-09T13:29:59.761Z,18.42
2017-02-09T13:31:09.053Z,18.44
2017-02-09T13:32:18.784Z,18.52
2017-02-09T13:33:28.069Z,18.51
2017-02-09T13:34:38.299Z,18.39
2017-02-09T13:35:48.451Z,18.45
2017-02-09T13:36:57.735Z,18.37
2017-02-09T13:38:07.017Z,18.36
2017-02-09T13:39:16.745Z,18.39
2017-02-09T13:40:26.515Z,18.35
2017-02-09T13:41:36.689Z,18.36
2017-02-09T13:42:46.413Z,18.35
2017-02-09T13:43:56.143Z,18.33
2017-02-09T13:45:05.858Z,18.33
2017-02-09T13:46:16.514Z,18.35
2017-02-09T13:47:25.794Z,18.17
2017-02-09T13:48:35.957Z,18.23
2017-02-09T13:49:45.676Z,18.27
2017-02-09T13:50:55.400Z,18.27
2017-02-09T13:52:06.208Z,18.18
2017-02-09T13:53:15.933Z,18.18
2017-02-09T13:54:25.664Z,18.2
2017-02-09T13:55:35.392Z,18.08
2017-02-09T13:56:44.673Z,18.11
2017-02-09T13:57:54.012Z,18.11
2017-02-09T13:59:04.619Z,18.05
2017-02-09T14:00:14.348Z,18.08
2017-02-09T14:01:24.960Z,18.07
2017-02-09T14:02:34.690Z,18.12
2017-02-09T14:03:45.344Z,18.02
2017-02-09T14:04:55.073Z,18.03
2017-02-09T14:06:05.238Z,18.03
2017-02-09T14:07:16.275Z,18.02
2017-02-09T14:08:26.444Z,17.97
2017-02-09T14:09:36.228Z,17.97
2017-02-09T14:10:45.951Z,17.93
2017-02-09T14:11:55.239Z,17.96
2017-02-09T14:13:05.406Z,17.99
2017-02-09T14:14:14.707Z,17.95
2017-02-09T14:15:24.043Z,17.96
2017-02-09T14:16:34.647Z,17.97
2017-02-09T14:17:45.254Z,17.89
2017-02-09T14:18:54.539Z,17.78
2017-02-09T14:20:04.704Z,17.87
2017-02-09T14:21:14.920Z,17.87
2017-02-09T14:22:25.082Z,17.78
2017-02-09T14:23:34.803Z,17.84
2017-02-09T14:24:44.532Z,17.86
2017-02-09T14:25:54.696Z,17.68
2017-02-09T14:27:04.461Z,17.72
2017-02-09T14:28:15.504Z,17.68
2017-02-09T14:29:25.221Z,17.7
2017-02-09T14:30:35.377Z,17.62
2017-02-09T14:31:45.538Z,17.63
2017-02-09T14:32:55.759Z,17.58
2017-02-09T14:34:05.491Z,17.54
2017-02-09T14:35:15.210Z,17.51
2017-02-09T14:36:24.936Z,17.48
2017-02-09T14:37:34.649Z,17.46
2017-02-09T14:38:43.985Z,17.48
2017-02-09T14:39:54.148Z,17.43
2017-02-09T14:41:04.317Z,17.38
2017-02-09T14:42:14.050Z,17.41
2017-02-09T14:43:23.343Z,17.36
2017-02-09T14:44:33.987Z,17.3
2017-02-09T14:45:43.310Z,17.23
2017-02-09T14:46:53.034Z,17.21
2017-02-09T14:48:02.756Z,17.26
2017-02-09T14:49:12.500Z,17.19
2017-02-09T14:50:21.839Z,17.21
2017-02-09T14:51:32.016Z,17.16
2017-02-09T14:52:42.177Z,17.07
2017-02-09T14:53:53.222Z,17.08
2017-02-09T14:55:02.949Z,17.07
2017-02-09T14:56:12.722Z,17.15
2017-02-09T14:57:22.896Z,17.06
2017-02-09T14:58:32.621Z,17.06
2017-02-09T14:59:42.354Z,16.93
2017-02-09T15:00:52.089Z,16.96
2017-02-09T15:02:01.868Z,16.96
2017-02-09T15:03:12.907Z,16.94